Time;durP1;ratioP1;P1;durP2;ratioP2;P2;SDS_P1;SDS_P2;PMS_P1;PMS_P2;Temp;Humidity;BMP_temperature;BMP_pressure;BME280_temperature;BME280_humidity;BME280_pressure;Samples;Min_cycle;Max_cycle;Signal;HPM_P1;HPM_P2
2022/02/26 00:00:33;;;;;;;6.20;2.85;;;204.90;1484.80;;;;;;5132515;28;20042;-57
2022/02/26 00:02:58;;;;;;;5.45;2.63;;;204.90;1484.80;;;;;;5132139;27;20034;-57
2022/02/26 00:05:24;;;;;;;3.85;2.00;;;204.90;1459.20;;;;;;5133046;27;20042;-57
2022/02/26 00:07:50;;;;;;;3.50;1.50;;;205.00;1459.20;;;;;;5131740;27;20023;-57
2022/02/26 00:10:15;;;;;;;5.32;2.00;;;205.00;1459.20;;;;;;5132885;28;20027;-56
2022/02/26 00:12:41;;;;;;;6.53;2.90;;;205.00;1459.20;;;;;;5132444;28;20111;-57
2022/02/26 00:15:07;;;;;;;5.47;2.50;;;205.00;1459.20;;;;;;5134213;27;20029;-56
2022/02/26 00:17:35;;;;;;;4.22;2.00;;;205.00;1433.60;;;;;;5136269;27;20062;-57
2022/02/26 00:20:02;;;;;;;5.03;1.77;;;205.00;1433.60;;;;;;5136887;27;20019;-57
2022/02/26 00:22:27;;;;;;;3.83;2.10;;;205.00;1433.60;;;;;;5134120;27;20029;-57
2022/02/26 00:24:53;;;;;;;5.55;2.10;;;205.00;1433.60;;;;;;5135526;27;20031;-57
2022/02/26 00:27:20;;;;;;;4.30;2.20;;;205.00;1433.60;;;;;;5136673;27;20027;-57
2022/02/26 00:29:46;;;;;;;4.53;2.40;;;205.00;1433.60;;;;;;5136522;27;20114;-57
2022/02/26 00:32:12;;;;;;;4.30;2.38;;;205.00;1433.60;;;;;;5136905;27;20102;-57
2022/02/26 00:34:37;;;;;;;5.30;2.65;;;205.10;1408.00;;;;;;5136095;27;20024;-57
2022/02/26 00:37:04;;;;;;;5.30;2.55;;;205.10;1408.00;;;;;;5136551;27;20106;-58
2022/02/26 00:39:30;;;;;;;4.38;2.30;;;205.10;1408.00;;;;;;5136429;27;20027;-57
2022/02/26 00:41:56;;;;;;;5.65;2.70;;;205.00;1433.60;;;;;;5134981;27;20039;-57
2022/02/26 00:44:22;;;;;;;6.25;3.00;;;205.00;1408.00;;;;;;5136339;27;20127;-57
2022/02/26 00:46:48;;;;;;;6.15;2.95;;;205.00;1408.00;;;;;;5133115;27;20011;-57
2022/02/26 00:51:58;;;;;;;6.05;3.10;;;205.00;1433.60;;;;;;5134900;27;20080;-57
2022/02/26 00:54:24;;;;;;;8.77;3.42;;;205.00;1433.60;;;;;;5136158;27;20487;-57
2022/02/26 00:56:50;;;;;;;7.80;4.03;;;205.10;1433.60;;;;;;5135929;27;20015;-57
2022/02/26 00:59:15;;;;;;;7.40;3.40;;;205.10;1433.60;;;;;;5134911;27;20035;-57
2022/02/26 01:01:42;;;;;;;9.93;4.60;;;205.10;1433.60;;;;;;5135936;27;20080;-57
2022/02/26 01:04:08;;;;;;;13.18;5.93;;;205.20;1408.00;;;;;;5133268;27;20019;-57
2022/02/26 01:06:35;;;;;;;11.38;5.05;;;205.10;1408.00;;;;;;5136084;27;20113;-57
2022/02/26 01:09:02;;;;;;;8.82;4.00;;;205.10;1408.00;;;;;;5135929;27;20020;-57
2022/02/26 01:11:27;;;;;;;8.07;3.65;;;205.10;1408.00;;;;;;5132526;27;20058;-56
2022/02/26 01:13:53;;;;;;;7.88;3.85;;;205.10;1408.00;;;;;;5135514;27;20476;-57
2022/02/26 01:16:19;;;;;;;9.95;3.55;;;205.10;1408.00;;;;;;5134294;27;20071;-57
2022/02/26 01:18:45;;;;;;;6.45;3.10;;;205.20;1408.00;;;;;;5134353;27;20015;-57
2022/02/26 01:21:11;;;;;;;6.65;3.15;;;205.20;1408.00;;;;;;5135379;27;20023;-57
2022/02/26 01:23:37;;;;;;;7.35;3.30;;;205.20;1408.00;;;;;;5135976;27;20034;-57
2022/02/26 01:26:03;;;;;;;7.63;3.10;;;205.20;1408.00;;;;;;5135461;27;20077;-57
2022/02/26 01:28:28;;;;;;;6.22;3.28;;;205.20;1408.00;;;;;;5135517;27;20019;-57
2022/02/26 01:30:54;;;;;;;7.60;3.78;;;205.10;1408.00;;;;;;5135552;27;20023;-57
2022/02/26 01:33:20;;;;;;;7.55;3.45;;;205.20;1408.00;;;;;;5133950;27;20041;-57
2022/02/26 01:35:45;;;;;;;4.65;2.38;;;205.20;1408.00;;;;;;5135380;27;20015;-57
2022/02/26 01:38:11;;;;;;;4.45;2.20;;;205.10;1408.00;;;;;;5135423;27;20047;-56
2022/02/26 01:40:37;;;;;;;4.43;2.22;;;205.10;1408.00;;;;;;5135396;27;20100;-57
2022/02/26 01:43:03;;;;;;;3.10;2.05;;;205.00;1408.00;;;;;;5134654;27;20492;-57
2022/02/26 01:45:29;;;;;;;4.78;2.40;;;205.00;1408.00;;;;;;5134015;27;20023;-57
2022/02/26 01:47:54;;;;;;;4.68;2.10;;;205.00;1408.00;;;;;;5135051;27;20067;-57
2022/02/26 01:50:21;;;;;;;4.72;2.28;;;205.00;1408.00;;;;;;5132611;27;20110;-57
2022/02/26 01:52:47;;;;;;;5.90;2.75;;;205.00;1408.00;;;;;;5134959;27;20031;-57
2022/02/26 01:55:13;;;;;;;5.75;3.00;;;205.00;1408.00;;;;;;5135277;27;20064;-57
2022/02/26 01:57:40;;;;;;;4.68;2.58;;;204.90;1408.00;;;;;;5134683;27;20046;-57
2022/02/26 02:00:08;;;;;;;4.63;2.75;;;204.90;1433.60;;;;;;5135112;27;20023;-57
2022/02/26 02:02:34;;;;;;;6.43;2.30;;;204.90;1433.60;;;;;;5134671;27;20036;-57
2022/02/26 02:05:00;;;;;;;5.05;2.40;;;204.90;1433.60;;;;;;5131578;27;20027;-56
2022/02/26 02:07:26;;;;;;;4.32;2.10;;;204.90;1433.60;;;;;;5133222;27;20073;-57
2022/02/26 02:09:52;;;;;;;3.65;2.08;;;204.90;1433.60;;;;;;5135136;27;20047;-57
2022/02/26 02:12:17;;;;;;;6.43;2.53;;;204.90;1408.00;;;;;;5134579;27;20022;-57
2022/02/26 02:14:47;;;;;;;4.63;2.30;;;204.80;1433.60;;;;;;5134918;27;20035;-57
2022/02/26 02:17:13;;;;;;;;;;;204.80;1433.60;;;;;;5134784;27;20023;-58
2022/02/26 02:19:39;;;;;;;;;;;180.10;1433.60;;;;;;5135020;27;19910;-57
2022/02/26 02:22:05;;;;;;;;;;;180.10;1433.60;;;;;;5133538;27;19934;-57
2022/02/26 02:24:31;;;;;;;;;;;180.10;1433.60;;;;;;5134956;27;19904;-57
2022/02/26 02:26:58;;;;;;;;;;;180.10;1433.60;;;;;;5134976;27;19907;-56
2022/02/26 02:29:24;;;;;;;;;;;180.10;1433.60;;;;;;5134765;27;19964;-56
2022/02/26 02:31:49;;;;;;;;;;;180.10;1433.60;;;;;;5134665;27;19903;-56
2022/02/26 02:34:15;;;;;;;;;;;180.10;1433.60;;;;;;5134876;27;19912;-57
2022/02/26 02:36:44;;;;;;;;;;;180.00;1433.60;;;;;;5133370;27;19907;-56
2022/02/26 02:39:10;;;;;;;;;;;180.10;1459.20;;;;;;5131842;27;19909;-56
2022/02/26 02:41:36;;;;;;;;;;;180.00;1433.60;;;;;;5134176;27;19903;-57
2022/02/26 02:44:01;;;;;;;;;;;180.00;1459.20;;;;;;5134931;27;19960;-57
2022/02/26 02:46:27;;;;;;;;;;;180.00;1459.20;;;;;;5134280;27;20242;-56
2022/02/26 02:48:54;;;;;;;;;;;180.00;1459.20;;;;;;5134873;27;19904;-56
2022/02/26 02:51:20;;;;;;;;;;;179.90;1459.20;;;;;;5134587;27;19904;-57
2022/02/26 02:53:46;;;;;;;;;;;179.90;1459.20;;;;;;5133093;27;19919;-56
2022/02/26 02:56:12;;;;;;;;;;;179.80;1484.80;;;;;;5134140;27;19910;-57
2022/02/26 02:58:37;;;;;;;;;;;179.80;1484.80;;;;;;5134158;27;19903;-56
2022/02/26 03:01:03;;;;;;;;;;;179.80;1510.40;;;;;;5134295;27;19919;-57
2022/02/26 03:03:29;;;;;;;;;;;179.80;1510.40;;;;;;5134105;27;19946;-57
2022/02/26 03:05:55;;;;;;;;;;;179.70;1510.40;;;;;;5134382;27;20367;-57
2022/02/26 03:08:23;;;;;;;;;;;179.70;1536.00;;;;;;5134115;27;19904;-57
2022/02/26 03:10:50;;;;;;;;;;;179.70;1536.00;;;;;;5131301;27;19907;-56
2022/02/26 03:13:15;;;;;;;;;;;179.70;1536.00;;;;;;5134239;27;19999;-56
2022/02/26 03:15:41;;;;;;;;;;;179.60;1536.00;;;;;;5134187;27;20040;-57
2022/02/26 03:18:06;;;;;;;;;;;179.60;1561.60;;;;;;5133425;27;19993;-57
2022/02/26 03:20:32;;;;;;;;;;;179.60;1561.60;;;;;;5133392;27;19904;-56
2022/02/26 03:22:58;;;;;;;;;;;179.60;1587.20;;;;;;5133928;27;19907;-57
2022/02/26 03:25:23;;;;;;;;;;;179.60;1587.20;;;;;;5131068;27;20414;-56
2022/02/26 03:27:51;;;;;;;4.30;2.40;;;179.50;1612.80;;;;;;5133689;27;20623;-56
2022/02/26 03:30:17;;;;;;;4.97;2.65;;;179.40;1638.40;;;;;;5133351;27;20417;-57
2022/02/26 03:32:43;;;;;;;6.40;2.75;;;179.40;1612.80;;;;;;5133088;27;20023;-56
2022/02/26 03:35:09;;;;;;;4.93;2.72;;;179.30;1638.40;;;;;;5130365;28;20030;-57
2022/02/26 03:37:36;;;;;;;5.15;2.80;;;179.30;1664.00;;;;;;5133404;27;20057;-56
2022/02/26 03:40:05;;;;;;;4.95;2.63;;;179.30;1664.00;;;;;;5132882;27;20422;-57
2022/02/26 03:42:30;;;;;;;5.68;2.90;;;179.30;1689.60;;;;;;5129393;27;20492;-56
2022/02/26 03:44:57;;;;;;;6.47;3.00;;;179.20;1689.60;;;;;;5131497;28;20037;-56
2022/02/26 03:47:23;;;;;;;5.65;3.17;;;179.20;1715.20;;;;;;5133029;27;20027;-56
2022/02/26 03:49:51;;;;;;;4.72;2.90;;;179.20;1715.20;;;;;;5133590;27;20111;-56
2022/02/26 03:52:17;;;;;;;5.95;2.90;;;179.20;1715.20;;;;;;5137157;27;20494;-57
2022/02/26 03:54:43;;;;;;;5.07;2.90;;;154.50;1715.20;;;;;;5137283;27;20116;-57
2022/02/26 03:57:09;;;;;;;4.80;2.90;;;179.20;1715.20;;;;;;5134622;27;20015;-57
2022/02/26 03:59:35;;;;;;;4.80;2.70;;;154.50;1715.20;;;;;;5136927;27;20023;-56
2022/02/26 04:02:01;;;;;;;7.57;3.78;;;154.50;1715.20;;;;;;5133967;27;20102;-57
2022/02/26 04:04:27;;;;;;;5.45;3.15;;;154.50;1689.60;;;;;;5136641;27;20102;-57
2022/02/26 04:06:54;;;;;;;4.85;2.80;;;154.50;1715.20;;;;;;5136917;27;20023;-57
2022/02/26 04:09:20;;;;;;;4.38;2.80;;;154.40;1689.60;;;;;;5137254;27;20023;-57
2022/02/26 04:11:46;;;;;;;5.43;2.60;;;154.40;1715.20;;;;;;5137059;27;20023;-57
2022/02/26 04:14:12;;;;;;;6.93;2.72;;;154.40;1715.20;;;;;;5136917;27;20476;-57
2022/02/26 04:16:37;;;;;;;5.75;2.78;;;154.40;1715.20;;;;;;5137140;27;20015;-57
2022/02/26 04:19:03;;;;;;;5.13;2.83;;;154.40;1715.20;;;;;;5135707;27;20027;-57
2022/02/26 04:21:30;;;;;;;6.47;3.20;;;154.40;1715.20;;;;;;5133268;27;20015;-57
2022/02/26 04:23:57;;;;;;;6.20;2.88;;;154.40;1715.20;;;;;;5137178;27;20031;-57
2022/02/26 04:26:23;;;;;;;6.60;2.97;;;154.40;1715.20;;;;;;5136750;27;20592;-57
2022/02/26 04:28:49;;;;;;;5.28;2.67;;;154.40;1715.20;;;;;;5136918;27;20039;-57
2022/02/26 04:31:16;;;;;;;5.57;2.80;;;154.40;1715.20;;;;;;5137018;27;20023;-57
2022/02/26 04:33:42;;;;;;;6.90;3.38;;;154.40;1715.20;;;;;;5135384;27;20041;-57
2022/02/26 04:36:08;;;;;;;7.93;3.55;;;154.40;1715.20;;;;;;5135631;27;20019;-57
2022/02/26 04:38:35;;;;;;;7.55;4.20;;;154.40;1689.60;;;;;;5136501;27;20035;-57
2022/02/26 04:41:02;;;;;;;9.25;4.13;;;154.30;1689.60;;;;;;5136283;27;20418;-57
2022/02/26 04:43:29;;;;;;;6.65;3.70;;;154.30;1689.60;;;;;;5136082;27;20552;-57
2022/02/26 04:45:55;;;;;;;10.15;4.00;;;154.20;1664.00;;;;;;5136558;27;20023;-57
2022/02/26 04:48:20;;;;;;;9.98;4.50;;;154.20;1638.40;;;;;;5136015;27;20154;-57
2022/02/26 04:50:47;;;;;;;12.70;5.13;;;154.20;1638.40;;;;;;5136282;27;20042;-57
2022/02/26 04:53:12;;;;;;;10.05;4.38;;;154.20;1638.40;;;;;;5135081;27;20536;-57
2022/02/26 04:55:38;;;;;;;6.85;3.63;;;154.10;1638.40;;;;;;5136140;27;20102;-57
2022/02/26 04:58:04;;;;;;;5.68;3.38;;;154.10;1638.40;;;;;;5136152;27;20058;-57
2022/02/26 05:00:30;;;;;;;6.68;3.65;;;154.10;1638.40;;;;;;5132416;27;20012;-57
2022/02/26 05:02:55;;;;;;;17.17;6.97;;;154.10;1638.40;;;;;;5136185;27;20027;-57
2022/02/26 05:05:22;;;;;;;11.48;5.10;;;154.00;1638.40;;;;;;5135684;27;20468;-57
2022/02/26 05:07:48;;;;;;;8.43;5.00;;;153.90;1664.00;;;;;;5134554;27;20069;-57
2022/02/26 05:10:14;;;;;;;9.10;5.32;;;154.00;1664.00;;;;;;5135908;27;20050;-57
2022/02/26 05:12:42;;;;;;;7.93;4.60;;;153.90;1664.00;;;;;;5134679;27;20026;-57
2022/02/26 05:15:08;;;;;;;6.57;4.00;;;154.00;1664.00;;;;;;5135798;27;20043;-57
2022/02/26 05:17:34;;;;;;;5.75;3.83;;;153.90;1689.60;;;;;;5135814;27;20015;-58
2022/02/26 05:20:00;;;;;;;8.23;4.38;;;154.00;1689.60;;;;;;5135207;27;20026;-57
2022/02/26 05:22:25;;;;;;;5.43;3.17;;;154.00;1689.60;;;;;;5135757;27;20023;-57
2022/02/26 05:24:51;;;;;;;5.90;3.70;;;154.00;1689.60;;;;;;5133900;27;20019;-57
2022/02/26 05:27:17;;;;;;;7.70;4.25;;;154.00;1689.60;;;;;;5135737;27;20598;-57
2022/02/26 05:29:43;;;;;;;6.03;3.67;;;154.00;1689.60;;;;;;5135433;27;20541;-57
2022/02/26 05:32:08;;;;;;;10.38;3.63;;;154.00;1689.60;;;;;;5135317;27;20019;-57
2022/02/26 05:34:34;;;;;;;17.48;6.25;;;154.00;1689.60;;;;;;5135430;27;20084;-57
2022/02/26 05:37:00;;;;;;;27.27;8.73;;;154.00;1689.60;;;;;;5135145;27;20011;-57
2022/02/26 05:39:26;;;;;;;22.25;7.72;;;154.00;1689.60;;;;;;5135323;27;20038;-57
2022/02/26 05:41:51;;;;;;;14.73;5.70;;;154.00;1689.60;;;;;;5132428;27;20050;-57
2022/02/26 05:44:17;;;;;;;11.02;5.53;;;154.10;1689.60;;;;;;5135596;27;20067;-57
2022/02/26 05:46:43;;;;;;;13.32;5.93;;;154.10;1689.60;;;;;;5135481;27;20099;-57
2022/02/26 05:49:08;;;;;;;11.80;5.70;;;154.10;1689.60;;;;;;5134833;27;20034;-58
2022/02/26 05:51:34;;;;;;;9.63;5.15;;;154.10;1689.60;;;;;;5135363;27;20028;-57
2022/02/26 05:54:00;;;;;;;10.63;5.70;;;154.10;1689.60;;;;;;5135029;27;20118;-57
2022/02/26 05:56:26;;;;;;;10.27;5.20;;;154.10;1689.60;;;;;;5133165;27;20051;-57
2022/02/26 05:58:51;;;;;;;7.93;4.75;;;154.10;1689.60;;;;;;5114788;28;20028;-57
2022/02/26 06:01:17;;;;;;;10.85;5.45;;;154.10;1689.60;;;;;;5114721;28;20015;-57
2022/02/26 06:03:43;;;;;;;16.25;6.20;;;154.10;1689.60;;;;;;5114580;28;20043;-57
2022/02/26 06:06:08;;;;;;;28.92;12.18;;;154.10;1715.20;;;;;;5114658;28;20174;-58
2022/02/26 06:08:34;;;;;;;35.33;18.08;;;154.20;1689.60;;;;;;5114931;28;20532;-58
2022/02/26 06:11:00;;;;;;;30.42;16.77;;;154.20;1715.20;;;;;;5114759;28;20087;-57
2022/02/26 06:13:26;;;;;;;69.15;35.83;;;154.30;1689.60;;;;;;5113235;28;20040;-57
2022/02/26 06:15:51;;;;;;;30.02;17.05;;;154.30;1689.60;;;;;;5114273;27;20028;-57
2022/02/26 06:18:17;;;;;;;21.10;10.25;;;154.40;1689.60;;;;;;5115948;27;20477;-57
2022/02/26 06:20:43;;;;;;;24.80;15.77;;;154.30;1689.60;;;;;;5134707;27;20023;-57
2022/02/26 06:23:08;;;;;;;14.15;7.82;;;154.20;1715.20;;;;;;5134087;27;20467;-57
2022/02/26 06:25:34;;;;;;;18.80;9.40;;;154.20;1715.20;;;;;;5134529;27;20034;-57
2022/02/26 06:28:00;;;;;;;29.02;13.05;;;154.30;1715.20;;;;;;5133535;27;20035;-57
2022/02/26 06:30:26;;;;;;;46.78;20.90;;;154.20;1715.20;;;;;;5128367;27;20027;-55
2022/02/26 06:32:52;;;;;;;16.45;8.30;;;154.30;1715.20;;;;;;5113896;28;20032;-56
2022/02/26 06:35:18;;;;;;;16.20;7.60;;;154.30;1740.80;;;;;;5132918;27;20028;-55
2022/02/26 06:37:44;;;;;;;17.23;9.10;;;154.30;1740.80;;;;;;5134437;27;20034;-55
2022/02/26 06:40:10;;;;;;;59.80;26.40;;;154.30;1766.40;;;;;;5134303;27;20019;-55
2022/02/26 06:42:35;;;;;;;44.13;19.52;;;154.30;1740.80;;;;;;5134304;27;20052;-56
2022/02/26 06:45:02;;;;;;;56.38;25.77;;;154.40;1766.40;;;;;;5134554;27;20079;-55
2022/02/26 06:47:27;;;;;;;23.95;11.63;;;154.50;1740.80;;;;;;5131842;27;20087;-56
2022/02/26 06:49:53;;;;;;;96.05;33.40;;;154.50;1740.80;;;;;;5134920;27;20480;-56
2022/02/26 06:52:19;;;;;;;21.80;11.40;;;179.20;1740.80;;;;;;5134518;27;20035;-55
2022/02/26 06:54:45;;;;;;;30.42;14.95;;;179.30;1740.80;;;;;;5133782;27;20068;-55
2022/02/26 06:57:10;;;;;;;16.42;9.48;;;179.30;1715.20;;;;;;5134208;27;20011;-56
2022/02/26 06:59:36;;;;;;;25.50;13.90;;;179.30;1740.80;;;;;;5135034;27;20027;-56
2022/02/26 07:02:02;;;;;;;47.78;22.83;;;179.40;1715.20;;;;;;5134554;27;20031;-55
2022/02/26 07:04:29;;;;;;;144.07;55.60;;;179.40;1740.80;;;;;;5129392;27;20120;-55
2022/02/26 07:06:55;;;;;;;129.55;46.75;;;179.60;1715.20;;;;;;5114377;28;20385;-56
2022/02/26 07:09:23;;;;;;;88.35;39.25;;;179.70;1715.20;;;;;;5132398;27;20030;-56
2022/02/26 07:11:49;;;;;;;73.93;28.40;;;179.80;1715.20;;;;;;5133496;27;20027;-56
2022/02/26 07:14:16;;;;;;;43.85;22.48;;;179.90;1689.60;;;;;;5133018;27;20064;-56
2022/02/26 07:16:42;;;;;;;52.63;28.00;;;180.00;1689.60;;;;;;5133346;27;20023;-58
2022/02/26 07:19:08;;;;;;;95.18;44.58;;;180.10;1664.00;;;;;;5133926;27;20126;-58
2022/02/26 07:21:36;;;;;;;131.32;61.78;;;204.90;1664.00;;;;;;5131936;27;20035;-58
2022/02/26 07:24:02;;;;;;;133.02;63.72;;;205.20;1664.00;;;;;;5133561;27;20019;-58
2022/02/26 07:26:30;;;;;;;88.97;39.00;;;205.40;1612.80;;;;;;5133332;27;20035;-58
2022/02/26 07:28:56;;;;;;;127.28;53.95;;;205.50;1587.20;;;;;;5133675;27;20023;-58
2022/02/26 07:31:22;;;;;;;57.58;28.42;;;205.70;1561.60;;;;;;5133059;27;20167;-57
2022/02/26 07:33:48;;;;;;;90.10;36.65;;;230.50;1536.00;;;;;;5133772;27;20121;-58
2022/02/26 07:36:14;;;;;;;93.00;36.05;;;230.60;1536.00;;;;;;5133315;27;20030;-58
2022/02/26 07:38:40;;;;;;;62.67;29.42;;;230.50;1510.40;;;;;;5132605;27;20031;-58
2022/02/26 07:41:06;;;;;;;54.10;24.65;;;230.50;1510.40;;;;;;5132979;27;20141;-58
2022/02/26 07:43:33;;;;;;;50.95;22.58;;;230.50;1536.00;;;;;;5132869;27;20039;-57
2022/02/26 07:46:01;;;;;;;77.60;31.45;;;230.80;1510.40;;;;;;5133699;28;20074;-57
2022/02/26 07:48:26;;;;;;;59.17;26.98;;;256.10;1433.60;;;;;;5133584;27;20050;-57
2022/02/26 07:50:52;;;;;;;57.58;26.80;;;256.70;1382.40;;;;;;5133009;28;20429;-58
2022/02/26 07:53:18;;;;;;;85.90;33.15;;;281.70;1356.80;;;;;;5133221;28;20063;-58
2022/02/26 07:55:44;;;;;;;116.18;41.35;;;282.30;1331.20;;;;;;5119518;28;20034;-58
2022/02/26 07:58:10;;;;;;;100.38;36.35;;;282.20;1331.20;;;;;;5113089;28;20435;-58
2022/02/26 08:00:36;;;;;;;119.03;44.15;;;282.10;1331.20;;;;;;5112869;28;20055;-58
2022/02/26 08:03:04;;;;;;;375.90;127.45;;;307.20;1331.20;;;;;;5112948;28;20473;-58
2022/02/26 08:05:30;;;;;;;59.83;23.50;;;332.80;1305.60;;;;;;5112718;28;20020;-59
2022/02/26 08:07:56;;;;;;;54.05;22.58;;;333.50;1203.20;;;;;;5112639;28;20034;-59
2022/02/26 08:10:22;;;;;;;35.78;18.13;;;359.30;1126.40;;;;;;5112891;28;20098;-58
2022/02/26 08:12:51;;;;;;;44.67;22.45;;;409.60;1075.20;;;;;;5112090;27;20379;-58
2022/02/26 08:15:22;;;;;;;62.00;37.53;;;410.10;1024.00;;;;;;5112696;28;20039;-58
2022/02/26 08:17:49;;;;;;;65.68;40.15;;;410.10;1024.00;;;;;;5128636;27;20075;-59
2022/02/26 08:20:17;;;;;;;91.25;57.42;;;410.30;1024.00;;;;;;5112514;28;20023;-59
2022/02/26 08:22:43;;;;;;;33.38;21.70;;;435.40;972.80;;;;;;5112749;28;20028;-59
2022/02/26 08:25:10;;;;;;;22.65;15.25;;;460.80;947.20;;;;;;5112650;28;20027;-59
2022/02/26 08:27:36;;;;;;;11.68;7.60;;;486.60;870.40;;;;;;5112505;28;20028;-59
2022/02/26 08:30:04;;;;;;;11.15;7.78;;;486.70;844.80;;;;;;5112473;27;20373;-58
2022/02/26 08:32:30;;;;;;;10.68;8.88;;;486.80;844.80;;;;;;5112213;28;20036;-59
2022/02/26 08:34:56;;;;;;;10.80;7.90;;;486.80;844.80;;;;;;5112514;28;20054;-59
2022/02/26 08:37:21;;;;;;;11.50;7.97;;;487.30;819.20;;;;;;5123481;27;20369;-59
2022/02/26 08:39:47;;;;;;;17.70;14.18;;;512.60;793.60;;;;;;5135830;27;20118;-59
2022/02/26 08:42:13;;;;;;;16.83;13.38;;;537.80;768.00;;;;;;5135421;27;20035;-59
2022/02/26 08:44:40;;;;;;;12.88;10.07;;;537.90;793.60;;;;;;5135539;27;20027;-59
2022/02/26 08:47:07;;;;;;;10.65;7.70;;;538.50;768.00;;;;;;5132698;27;20439;-59
2022/02/26 08:49:33;;;;;;;8.80;6.90;;;563.30;768.00;;;;;;5132856;27;20022;-59
2022/02/26 08:51:59;;;;;;;7.90;6.43;;;564.00;742.40;;;;;;5135534;27;20027;-59
2022/02/26 08:54:25;;;;;;;22.33;13.55;;;564.00;716.80;;;;;;5135436;27;20043;-59
2022/02/26 08:56:51;;;;;;;10.73;7.95;;;589.60;716.80;;;;;;5135319;27;20019;-59
2022/02/26 08:59:17;;;;;;;9.43;7.57;;;615.30;665.60;;;;;;5135623;27;20138;-59
2022/02/26 09:01:43;;;;;;;12.68;10.40;;;640.40;614.40;;;;;;5135350;27;20011;-59
2022/02/26 09:04:09;;;;;;;11.45;8.43;;;640.20;640.00;;;;;;5135143;27;20051;-57
2022/02/26 09:06:35;;;;;;;7.20;5.57;;;614.70;665.60;;;;;;5131857;27;20139;-57
2022/02/26 09:09:08;;;;;;;9.93;7.50;;;589.50;716.80;;;;;;5134968;27;20027;-57
2022/02/26 09:11:35;;;;;;;10.05;7.35;;;589.10;742.40;;;;;;5132497;27;20031;-57
2022/02/26 09:14:01;;;;;;;9.77;7.10;;;563.30;768.00;;;;;;5132633;27;20031;-57
2022/02/26 09:16:26;;;;;;;12.52;7.40;;;538.40;742.40;;;;;;5133631;27;20107;-57
2022/02/26 09:18:52;;;;;;;8.57;6.03;;;538.30;742.40;;;;;;5131850;27;20019;-56
2022/02/26 09:21:19;;;;;;;14.60;9.00;;;563.50;716.80;;;;;;5133766;27;20479;-56
2022/02/26 09:23:45;;;;;;;11.98;7.57;;;588.80;742.40;;;;;;5133118;27;20027;-57
2022/02/26 09:26:11;;;;;;;8.27;5.30;;;564.10;742.40;;;;;;5134708;27;20079;-59
2022/02/26 09:28:41;;;;;;;7.43;5.22;;;563.30;742.40;;;;;;5134127;27;20068;-59
2022/02/26 09:31:08;;;;;;;9.07;5.95;;;537.80;716.80;;;;;;5133375;27;20064;-59
2022/02/26 09:33:35;;;;;;;7.88;5.45;;;512.90;691.20;;;;;;5131145;27;20388;-57
2022/02/26 09:36:02;;;;;;;7.82;4.82;;;512.60;691.20;;;;;;5134433;27;20027;-57
2022/02/26 09:38:28;;;;;;;7.63;5.43;;;538.20;691.20;;;;;;5133935;27;20034;-57
2022/02/26 09:40:58;;;;;;;7.97;4.60;;;589.40;665.60;;;;;;5134283;27;20616;-57
2022/02/26 09:43:25;;;;;;;9.57;4.28;;;614.90;588.80;;;;;;5133611;27;20062;-57
2022/02/26 09:45:52;;;;;;;7.75;4.60;;;614.80;563.20;;;;;;5133929;27;20035;-57
2022/02/26 09:48:18;;;;;;;6.65;4.72;;;614.70;588.80;;;;;;5133253;27;20400;-57
2022/02/26 09:50:44;;;;;;;4.95;3.50;;;564.00;665.60;;;;;;5132051;27;20037;-56
2022/02/26 09:53:11;;;;;;;6.60;4.03;;;538.30;640.00;;;;;;5133734;27;20504;-56
2022/02/26 09:55:37;;;;;;;9.85;4.97;;;537.70;691.20;;;;;;5133460;27;20376;-56
2022/02/26 09:58:04;;;;;;;13.13;6.40;;;487.20;691.20;;;;;;5133980;27;20030;-56
2022/02/26 10:00:30;;;;;;;7.15;3.80;;;486.70;716.80;;;;;;5133627;27;20574;-57
2022/02/26 10:02:57;;;;;;;5.03;3.20;;;461.30;768.00;;;;;;5133907;27;20030;-56
2022/02/26 10:05:23;;;;;;;7.95;4.45;;;435.90;793.60;;;;;;5134122;27;20039;-57
2022/02/26 10:07:49;;;;;;;10.40;7.07;;;435.30;819.20;;;;;;5133883;27;20494;-57
2022/02/26 10:10:21;;;;;;;12.55;6.85;;;410.00;844.80;;;;;;5133865;27;20087;-56
2022/02/26 10:13:00;;;;;;;16.17;7.97;;;409.90;870.40;;;;;;5132723;27;20019;-57
2022/02/26 10:15:38;;;;;;;12.07;6.43;;;409.60;870.40;;;;;;5127874;27;20031;-56
2022/02/26 10:18:11;;;;;;;10.00;4.88;;;384.90;844.80;;;;;;5129416;27;20096;-56
2022/02/26 10:20:53;;;;;;;19.90;9.73;;;384.70;844.80;;;;;;5130492;27;20035;-56
2022/02/26 10:23:19;;;;;;;12.02;6.38;;;384.90;844.80;;;;;;5132585;27;20034;-56
2022/02/26 10:25:45;;;;;;;8.15;4.78;;;384.90;844.80;;;;;;5132820;27;20388;-57
2022/02/26 10:28:13;;;;;;;13.05;6.72;;;409.80;870.40;;;;;;5131195;27;20031;-56
2022/02/26 10:30:41;;;;;;;30.30;14.10;;;410.10;844.80;;;;;;5132395;27;20549;-60
2022/02/26 10:33:20;;;;;;;10.00;5.25;;;435.20;844.80;;;;;;5130334;27;20046;-59
2022/02/26 10:35:48;;;;;;;5.47;3.10;;;435.40;819.20;;;;;;5130506;27;20042;-59
2022/02/26 10:38:20;;;;;;;6.60;4.00;;;435.20;819.20;;;;;;5132779;27;20058;-58
2022/02/26 10:40:48;;;;;;;6.97;4.18;;;435.50;793.60;;;;;;5130435;27;20035;-61
2022/02/26 10:43:14;;;;;;;7.10;4.25;;;460.80;793.60;;;;;;5131688;27;20040;-60
2022/02/26 10:45:40;;;;;;;4.85;3.05;;;460.90;793.60;;;;;;5132141;27;20041;-59
2022/02/26 10:48:05;;;;;;;9.80;5.18;;;461.00;768.00;;;;;;5130411;27;20035;-60
2022/02/26 10:50:34;;;;;;;12.23;6.70;;;461.00;742.40;;;;;;5131751;27;20095;-62
2022/02/26 10:53:05;;;;;;;8.60;4.25;;;461.00;768.00;;;;;;5131769;27;20030;-57
2022/02/26 10:55:52;;;;;;;13.65;6.75;;;436.10;768.00;;;;;;5130304;27;20031;-61
2022/02/26 10:58:23;;;;;;;8.30;4.93;;;460.80;768.00;;;;;;5131089;27;20033;-62
2022/02/26 11:00:49;;;;;;;18.25;9.25;;;436.10;742.40;;;;;;5131662;27;20027;-59
2022/02/26 11:03:17;;;;;;;14.48;7.80;;;460.80;768.00;;;;;;5131437;27;20034;-58
2022/02/26 11:05:44;;;;;;;11.25;6.68;;;460.80;768.00;;;;;;5131342;27;20046;-57
2022/02/26 11:08:12;;;;;;;10.23;5.93;;;435.70;768.00;;;;;;5130028;27;20027;-59
2022/02/26 11:10:39;;;;;;;9.77;5.43;;;435.70;793.60;;;;;;5131552;27;20049;-58
2022/02/26 11:13:05;;;;;;;13.07;6.90;;;435.40;793.60;;;;;;5128366;27;20042;-60
2022/02/26 11:15:32;;;;;;;6.47;3.65;;;435.40;793.60;;;;;;5132843;27;20039;-62
2022/02/26 11:18:00;;;;;;;6.93;3.97;;;435.30;793.60;;;;;;5133649;27;20502;-61
2022/02/26 11:20:26;;;;;;;9.13;5.35;;;410.50;793.60;;;;;;5133100;27;20040;-60
2022/02/26 11:23:01;;;;;;;16.40;8.60;;;435.20;793.60;;;;;;5133021;27;20026;-62
2022/02/26 11:25:28;;;;;;;13.75;7.00;;;410.40;793.60;;;;;;5131655;27;20111;-58
2022/02/26 11:27:54;;;;;;;9.95;5.25;;;435.20;768.00;;;;;;5120859;27;20031;-57
2022/02/26 11:30:25;;;;;;;8.10;4.90;;;435.20;768.00;;;;;;5130141;27;20044;-62
2022/02/26 11:32:50;;;;;;;13.90;7.00;;;410.40;768.00;;;;;;5132432;27;20428;-64
2022/02/26 11:35:19;;;;;;;27.75;13.52;;;410.40;793.60;;;;;;5125995;27;20087;-61
2022/02/26 11:37:53;;;;;;;40.53;18.88;;;410.30;870.40;;;;;;5132661;27;20110;-62
2022/02/26 11:40:19;;;;;;;50.83;20.47;;;435.20;870.40;;;;;;5132157;27;20438;-56
2022/02/26 11:42:46;;;;;;;62.60;24.63;;;410.20;896.00;;;;;;5132066;28;20047;-57
2022/02/26 11:45:41;;;;;;;100.95;32.83;;;410.10;870.40;;;;;;5129105;27;20019;-60
2022/02/26 11:48:08;;;;;;;165.82;47.75;;;410.30;870.40;;;;;;5048047;28;20037;-62
2022/02/26 11:50:33;;;;;;;219.15;58.20;;;410.30;870.40;;;;;;5048054;28;20052;-60
2022/02/26 11:53:15;;;;;;;104.43;34.00;;;435.30;870.40;;;;;;5048280;28;20712;-56
2022/02/26 11:55:57;;;;;;;86.78;29.42;;;435.70;844.80;;;;;;5046328;28;20037;-59
2022/02/26 11:58:30;;;;;;;159.20;46.92;;;435.50;844.80;;;;;;5048370;28;20037;-60
2022/02/26 12:01:13;;;;;;;92.32;32.63;;;435.40;844.80;;;;;;5029396;28;20034;-59
2022/02/26 12:03:39;;;;;;;43.58;20.02;;;435.30;870.40;;;;;;5040964;28;20021;-59
2022/02/26 12:06:13;;;;;;;49.78;23.55;;;435.70;844.80;;;;;;5048736;28;20041;-60
2022/02/26 12:08:59;;;;;;;56.03;25.60;;;460.80;844.80;;;;;;5048774;28;20506;-58
2022/02/26 12:11:36;;;;;;;47.40;23.20;;;461.30;819.20;;;;;;5050625;28;20036;-58
2022/02/26 12:14:16;;;;;;;36.13;18.98;;;486.40;793.60;;;;;;5052379;28;20064;-60
2022/02/26 12:16:42;;;;;;;31.23;18.38;;;486.70;768.00;;;;;;5049957;28;20037;-62
2022/02/26 12:19:27;;;;;;;17.38;11.13;;;512.00;716.80;;;;;;5052417;28;20044;-58
2022/02/26 12:21:58;;;;;;;16.70;10.02;;;512.80;665.60;;;;;;5052597;28;20041;-61